createdAt,value
2018-12-29T00:01:00.293Z,30.63
2018-12-29T00:04:04.665Z,27.17
2018-12-29T00:07:09.052Z,30.70
2018-12-29T00:10:13.461Z,29.77
2018-12-29T00:13:17.919Z,30.03
2018-12-29T00:16:22.322Z,30.53
2018-12-29T00:19:26.680Z,29.33
2018-12-29T00:22:31.081Z,31.17
2018-12-29T00:25:35.400Z,28.73
2018-12-29T00:28:39.768Z,30.20
2018-12-29T00:31:44.107Z,32.40
2018-12-29T00:34:48.386Z,28.07
2018-12-29T00:37:52.782Z,32.13
2018-12-29T00:40:57.177Z,31.83
2018-12-29T00:44:01.563Z,31.13
2018-12-29T00:47:05.963Z,29.67
2018-12-29T00:50:10.503Z,29.83
2018-12-29T00:53:14.897Z,34.57
2018-12-29T00:56:19.287Z,30.53
2018-12-29T00:59:23.639Z,32.67
2018-12-29T01:02:27.981Z,34.47
2018-12-29T01:05:32.361Z,33.33
2018-12-29T01:08:36.937Z,32.50
2018-12-29T01:11:41.304Z,29.63
2018-12-29T01:14:45.698Z,33.50
2018-12-29T01:17:50.030Z,36.80
2018-12-29T01:20:54.407Z,33.03
2018-12-29T01:23:58.792Z,32.33
2018-12-29T01:27:03.152Z,38.10
2018-12-29T01:30:08.064Z,32.63
2018-12-29T01:33:12.403Z,34.97
2018-12-29T01:36:16.780Z,33.97
2018-12-29T01:39:21.218Z,34.30
2018-12-29T01:42:25.582Z,34.73
2018-12-29T01:45:29.911Z,32.93
2018-12-29T01:48:34.189Z,32.83
2018-12-29T01:51:38.576Z,34.80
2018-12-29T01:54:42.855Z,36.13
2018-12-29T01:57:47.193Z,35.07
2018-12-29T02:00:51.514Z,38.83
2018-12-29T02:03:55.844Z,34.97
2018-12-29T02:07:00.236Z,34.93
2018-12-29T02:10:04.692Z,33.17
2018-12-29T02:13:08.990Z,31.53
2018-12-29T02:16:13.323Z,35.70
2018-12-29T02:19:17.677Z,35.77
2018-12-29T02:22:22.111Z,30.70
2018-12-29T02:25:26.498Z,35.00
2018-12-29T02:28:30.822Z,35.33
2018-12-29T02:31:35.212Z,38.43
2018-12-29T02:34:39.524Z,35.37
2018-12-29T02:37:44.000Z,35.60
2018-12-29T02:40:48.315Z,35.17
2018-12-29T02:43:52.799Z,35.73
2018-12-29T02:46:57.185Z,33.07
2018-12-29T02:50:01.571Z,34.43
2018-12-29T02:53:09.504Z,32.23
2018-12-29T02:56:13.882Z,36.10
2018-12-29T02:59:18.239Z,38.90
2018-12-29T03:02:22.612Z,45.83
2018-12-29T03:05:27.066Z,46.07
2018-12-29T03:08:31.517Z,47.10
2018-12-29T03:11:35.905Z,44.97
2018-12-29T03:14:40.264Z,53.93
2018-12-29T03:17:44.611Z,56.57
2018-12-29T03:20:48.957Z,49.93
2018-12-29T03:23:53.303Z,45.17
2018-12-29T03:26:57.620Z,45.27
2018-12-29T03:30:01.931Z,55.40
2018-12-29T03:33:06.274Z,54.70
2018-12-29T03:36:10.524Z,62.40
2018-12-29T03:39:14.869Z,54.73
2018-12-29T03:42:19.252Z,48.33
2018-12-29T03:45:23.663Z,72.37
2018-12-29T03:48:28.018Z,49.33
2018-12-29T03:51:32.355Z,46.33
2018-12-29T03:54:36.722Z,57.93
2018-12-29T03:57:40.990Z,62.87
2018-12-29T04:00:45.328Z,49.30
2018-12-29T04:03:49.708Z,50.70
2018-12-29T04:06:54.007Z,46.77
2018-12-29T04:09:58.349Z,46.03
2018-12-29T04:13:02.983Z,47.90
2018-12-29T04:16:07.385Z,51.53
2018-12-29T04:19:11.802Z,52.73
2018-12-29T04:22:16.178Z,45.37
2018-12-29T04:25:24.502Z,45.40
2018-12-29T04:28:28.813Z,45.73
2018-12-29T04:31:33.495Z,51.63
2018-12-29T04:34:37.830Z,45.43
2018-12-29T04:37:42.209Z,43.23
2018-12-29T04:40:46.596Z,45.53
2018-12-29T04:43:50.900Z,47.33
2018-12-29T04:46:55.301Z,47.93
2018-12-29T04:49:59.621Z,48.23
2018-12-29T04:53:03.931Z,45.30
2018-12-29T04:56:08.326Z,45.40
2018-12-29T04:59:12.665Z,46.37
2018-12-29T05:02:17.040Z,47.07
2018-12-29T05:05:21.450Z,46.47
2018-12-29T05:08:25.791Z,43.07
2018-12-29T05:11:30.477Z,46.43
2018-12-29T05:14:34.814Z,45.10
2018-12-29T05:17:39.135Z,49.00
2018-12-29T05:20:43.531Z,48.67
2018-12-29T05:23:47.884Z,50.10
2018-12-29T05:26:52.269Z,50.40
2018-12-29T05:29:56.708Z,53.03
2018-12-29T05:33:01.005Z,51.97
2018-12-29T05:36:05.370Z,52.00
2018-12-29T05:39:09.731Z,47.07
2018-12-29T05:42:14.041Z,50.90
2018-12-29T05:45:18.423Z,47.83
2018-12-29T05:48:22.748Z,48.17
2018-12-29T05:51:27.045Z,49.27
2018-12-29T05:54:31.670Z,51.37
2018-12-29T05:57:36.157Z,50.37
2018-12-29T06:00:40.531Z,56.23
2018-12-29T06:03:44.892Z,45.17
2018-12-29T06:06:49.261Z,43.47
2018-12-29T06:09:53.619Z,48.23
2018-12-29T06:12:58.024Z,53.23
2018-12-29T06:16:02.351Z,52.80
2018-12-29T06:19:06.698Z,49.47
2018-12-29T06:22:11.074Z,49.77
2018-12-29T06:25:15.421Z,52.20
2018-12-29T06:28:19.748Z,48.83
2018-12-29T06:31:24.135Z,50.47
2018-12-29T06:34:28.491Z,47.80
2018-12-29T06:37:32.872Z,47.70
2018-12-29T06:40:37.112Z,51.90
2018-12-29T06:43:41.464Z,50.67
2018-12-29T06:46:45.794Z,46.83
2018-12-29T06:49:50.160Z,42.20
2018-12-29T06:52:54.527Z,47.43
2018-12-29T06:55:58.820Z,49.93
2018-12-29T06:59:03.219Z,51.47
2018-12-29T07:02:07.627Z,49.70
2018-12-29T07:05:11.968Z,54.07
2018-12-29T07:08:16.286Z,50.77
2018-12-29T07:11:20.682Z,57.00
2018-12-29T07:14:25.082Z,54.90
2018-12-29T07:17:29.540Z,47.80
2018-12-29T07:20:33.812Z,49.87
2018-12-29T07:23:38.129Z,49.80
2018-12-29T07:26:42.549Z,41.63
2018-12-29T07:29:46.922Z,46.87
2018-12-29T07:32:51.191Z,31.10
2018-12-29T07:35:55.571Z,30.90
2018-12-29T07:39:01.908Z,34.87
2018-12-29T07:42:05.940Z,32.83
2018-12-29T07:45:10.308Z,30.50
2018-12-29T07:48:14.670Z,30.03
2018-12-29T07:51:19.118Z,31.87
2018-12-29T07:54:23.474Z,34.93
2018-12-29T07:57:27.775Z,30.40
2018-12-29T08:00:32.489Z,29.53
2018-12-29T08:03:37.289Z,29.67
2018-12-29T08:06:41.579Z,32.53
2018-12-29T08:09:46.083Z,29.57
2018-12-29T08:12:50.455Z,31.03
2018-12-29T08:15:54.857Z,32.73
2018-12-29T08:18:59.189Z,41.20
2018-12-29T08:22:03.695Z,44.87
2018-12-29T08:25:08.078Z,41.63
2018-12-29T08:28:12.575Z,44.13
2018-12-29T08:31:17.404Z,43.50
2018-12-29T08:34:21.781Z,42.93
2018-12-29T08:37:26.149Z,42.70
2018-12-29T08:40:30.553Z,39.57
2018-12-29T08:43:34.892Z,45.93
2018-12-29T08:46:39.276Z,45.90
2018-12-29T08:49:43.969Z,40.47
2018-12-29T08:52:48.314Z,46.77
2018-12-29T08:55:55.661Z,32.13
2018-12-29T08:59:00.058Z,39.80
2018-12-29T09:02:04.618Z,36.17
2018-12-29T09:05:09.017Z,38.87
2018-12-29T09:08:13.499Z,37.43
2018-12-29T09:11:17.858Z,40.10
2018-12-29T09:14:22.290Z,36.83
2018-12-29T09:17:28.374Z,32.07
2018-12-29T09:20:32.945Z,30.70
2018-12-29T09:23:37.323Z,38.37
2018-12-29T09:26:41.753Z,35.53
2018-12-29T09:29:46.389Z,38.03
2018-12-29T09:32:50.777Z,34.07
2018-12-29T09:35:56.327Z,36.70
2018-12-29T09:39:01.021Z,32.47
2018-12-29T09:42:05.812Z,34.00
2018-12-29T09:45:10.201Z,36.63
2018-12-29T09:48:14.559Z,35.03
2018-12-29T09:51:18.879Z,33.03
2018-12-29T09:54:30.081Z,31.93
2018-12-29T09:57:34.387Z,24.27
2018-12-29T10:00:39.200Z,28.93
2018-12-29T10:03:43.608Z,25.10
2018-12-29T10:06:48.007Z,23.10
2018-12-29T10:09:52.501Z,21.37
2018-12-29T10:12:56.849Z,23.93
2018-12-29T10:16:01.277Z,21.40
2018-12-29T10:19:05.790Z,22.00
2018-12-29T10:22:10.101Z,20.77
2018-12-29T10:25:14.693Z,23.20
2018-12-29T10:28:19.270Z,24.23
2018-12-29T10:31:23.610Z,21.37
2018-12-29T10:34:28.049Z,21.00
2018-12-29T10:37:32.325Z,20.67
2018-12-29T10:40:36.787Z,22.57
2018-12-29T10:43:41.153Z,24.60
2018-12-29T10:46:45.618Z,23.87
2018-12-29T10:49:50.215Z,24.30
2018-12-29T10:52:54.691Z,22.03
2018-12-29T10:55:59.105Z,22.70
2018-12-29T10:59:03.672Z,23.77
2018-12-29T11:02:08.174Z,25.97
2018-12-29T11:05:12.630Z,23.63
2018-12-29T11:08:17.088Z,24.60
2018-12-29T11:11:21.538Z,27.73
2018-12-29T11:14:26.435Z,25.63
2018-12-29T11:17:30.803Z,26.17
2018-12-29T11:20:35.272Z,28.73
2018-12-29T11:23:40.232Z,29.57
2018-12-29T11:26:44.868Z,25.87
2018-12-29T11:29:49.332Z,25.20
2018-12-29T11:32:54.100Z,27.33
2018-12-29T11:35:58.512Z,23.80
2018-12-29T11:39:03.718Z,23.87
2018-12-29T11:42:08.110Z,28.10
2018-12-29T11:45:12.513Z,26.90
2018-12-29T11:48:16.999Z,28.33
2018-12-29T11:51:21.364Z,29.70
2018-12-29T11:54:25.775Z,23.57
2018-12-29T11:57:30.328Z,26.00
2018-12-29T12:00:34.736Z,25.10
2018-12-29T12:03:39.158Z,25.67
2018-12-29T12:06:43.496Z,24.97
2018-12-29T12:09:48.239Z,26.67
2018-12-29T12:12:52.562Z,30.57
2018-12-29T12:15:56.962Z,25.57
2018-12-29T12:19:01.335Z,26.97
2018-12-29T12:22:05.707Z,27.73
2018-12-29T12:25:10.111Z,26.07
2018-12-29T12:28:14.502Z,27.63
2018-12-29T12:31:18.992Z,28.40
2018-12-29T12:34:23.338Z,28.40
2018-12-29T12:37:27.759Z,30.00
2018-12-29T12:40:32.404Z,26.63
2018-12-29T12:43:36.874Z,28.47
2018-12-29T12:46:41.755Z,27.90
2018-12-29T12:49:46.493Z,24.47
2018-12-29T12:52:50.902Z,28.23
2018-12-29T12:55:55.239Z,27.50
2018-12-29T12:58:59.982Z,25.80
2018-12-29T13:02:04.563Z,25.07
2018-12-29T13:05:08.970Z,28.17
2018-12-29T13:08:13.404Z,25.57
2018-12-29T13:11:17.770Z,24.97
2018-12-29T13:14:22.223Z,21.43
2018-12-29T13:17:26.683Z,25.83
2018-12-29T13:20:31.103Z,25.10
2018-12-29T13:23:35.511Z,28.23
2018-12-29T13:26:40.408Z,21.87
2018-12-29T13:29:44.803Z,24.80
2018-12-29T13:32:49.201Z,24.10
2018-12-29T13:35:53.702Z,26.67
2018-12-29T13:38:58.047Z,26.47
2018-12-29T13:42:02.448Z,28.53
2018-12-29T13:45:06.883Z,27.30
2018-12-29T13:48:11.251Z,26.30
2018-12-29T13:51:15.930Z,29.63
2018-12-29T13:54:23.470Z,29.47
2018-12-29T13:57:30.877Z,28.47
2018-12-29T14:00:35.157Z,26.30
2018-12-29T14:03:39.695Z,28.37
2018-12-29T14:06:44.194Z,27.40
2018-12-29T14:09:48.670Z,28.20
2018-12-29T14:12:53.546Z,31.13
2018-12-29T14:15:58.155Z,26.13
2018-12-29T14:19:02.891Z,28.23
2018-12-29T14:22:07.705Z,36.03
2018-12-29T14:25:12.283Z,41.80
2018-12-29T14:28:16.887Z,35.57
2018-12-29T14:31:21.250Z,21.87
2018-12-29T14:34:27.708Z,19.13
2018-12-29T14:37:31.800Z,20.87
2018-12-29T14:40:36.426Z,20.57
2018-12-29T14:43:40.992Z,22.43
2018-12-29T14:46:45.328Z,20.27
2018-12-29T14:49:50.156Z,21.47
2018-12-29T14:52:57.535Z,19.83
2018-12-29T14:56:01.890Z,21.33
2018-12-29T14:59:06.470Z,20.70
2018-12-29T15:02:11.189Z,20.10
2018-12-29T15:05:15.596Z,20.73
2018-12-29T15:08:19.963Z,19.97
2018-12-29T15:11:24.346Z,22.90
2018-12-29T15:14:28.778Z,19.33
2018-12-29T15:17:33.142Z,19.27
2018-12-29T15:20:37.938Z,19.13
2018-12-29T15:23:42.699Z,19.20
2018-12-29T15:26:47.658Z,19.43
2018-12-29T15:29:52.405Z,19.90
2018-12-29T15:32:56.800Z,18.73
2018-12-29T15:36:01.317Z,20.03
2018-12-29T15:39:07.790Z,18.80
2018-12-29T15:42:12.352Z,20.30
2018-12-29T15:45:16.759Z,21.23
2018-12-29T15:48:21.151Z,20.07
2018-12-29T15:51:25.451Z,17.90
2018-12-29T15:54:32.284Z,18.40
2018-12-29T15:57:36.683Z,16.00
2018-12-29T16:00:41.132Z,15.33
2018-12-29T16:03:45.645Z,18.63
2018-12-29T16:06:50.100Z,17.83
2018-12-29T16:09:54.743Z,15.50
2018-12-29T16:12:59.432Z,18.20
2018-12-29T16:16:03.935Z,33.40
2018-12-29T16:19:08.384Z,43.03
2018-12-29T16:22:12.845Z,24.90
2018-12-29T16:25:17.302Z,22.00
2018-12-29T16:28:21.675Z,17.80
2018-12-29T16:31:26.084Z,19.50
2018-12-29T16:34:30.506Z,21.60
2018-12-29T16:37:34.932Z,20.57
2018-12-29T16:40:39.440Z,20.87
2018-12-29T16:43:44.005Z,28.43
2018-12-29T16:46:48.342Z,35.00
2018-12-29T16:49:52.803Z,14.60
2018-12-29T16:52:57.527Z,16.03
2018-12-29T16:56:02.045Z,11.47
2018-12-29T16:59:06.591Z,18.47
2018-12-29T17:02:11.086Z,14.70
2018-12-29T17:05:15.548Z,9.97
2018-12-29T17:08:20.025Z,10.70
2018-12-29T17:11:24.661Z,11.50
2018-12-29T17:14:29.276Z,16.27
2018-12-29T17:17:33.648Z,13.23
2018-12-29T17:20:38.070Z,12.10
2018-12-29T17:23:42.508Z,9.90
2018-12-29T17:26:46.955Z,13.37
2018-12-29T17:29:51.495Z,10.30
2018-12-29T17:32:57.100Z,13.53
2018-12-29T17:36:01.938Z,12.00
2018-12-29T17:39:07.869Z,12.47
2018-12-29T17:42:12.540Z,12.60
2018-12-29T17:45:17.016Z,16.33
2018-12-29T17:48:21.398Z,12.20
2018-12-29T17:51:25.801Z,13.50
2018-12-29T17:54:30.441Z,11.63
2018-12-29T17:57:34.846Z,12.43
2018-12-29T18:00:39.422Z,10.20
2018-12-29T18:03:44.198Z,12.00
2018-12-29T18:06:48.655Z,12.93
2018-12-29T18:09:57.101Z,10.50
2018-12-29T18:12:59.362Z,50.00
2018-12-29T18:16:04.013Z,21.27
2018-12-29T18:19:08.467Z,20.13
2018-12-29T18:22:12.863Z,18.07
2018-12-29T18:25:17.486Z,11.90
2018-12-29T18:28:22.306Z,10.20
2018-12-29T18:31:26.701Z,11.27
2018-12-29T18:34:31.135Z,11.00
2018-12-29T18:37:35.511Z,12.80
2018-12-29T18:40:40.146Z,10.77
2018-12-29T18:43:44.697Z,11.07
2018-12-29T18:46:49.075Z,11.47
2018-12-29T18:49:53.422Z,12.03
2018-12-29T18:52:58.128Z,13.10
2018-12-29T18:56:02.495Z,12.13
2018-12-29T18:59:06.878Z,11.80
2018-12-29T19:02:11.266Z,11.93
2018-12-29T19:05:16.027Z,10.17
2018-12-29T19:08:20.726Z,13.60
2018-12-29T19:11:27.349Z,12.80
2018-12-29T19:14:31.697Z,12.23
2018-12-29T19:17:36.166Z,16.17
2018-12-29T19:20:40.786Z,22.43
2018-12-29T19:23:45.740Z,11.43
2018-12-29T19:26:50.503Z,23.30
2018-12-29T19:29:54.980Z,47.40
2018-12-29T19:32:59.490Z,14.43
2018-12-29T19:36:10.306Z,12.00
2018-12-29T19:39:14.774Z,14.30
2018-12-29T19:42:19.208Z,12.80
2018-12-29T19:45:23.534Z,12.17
2018-12-29T19:48:28.433Z,11.70
2018-12-29T19:51:33.275Z,18.27
2018-12-29T19:54:37.659Z,11.83
2018-12-29T19:57:42.338Z,14.67
2018-12-29T20:00:46.724Z,12.07
2018-12-29T20:03:51.555Z,10.60
2018-12-29T20:06:55.926Z,18.30
2018-12-29T20:10:00.361Z,13.20
2018-12-29T20:13:04.790Z,7.20
2018-12-29T20:16:09.144Z,13.37
2018-12-29T20:19:13.512Z,8.73
2018-12-29T20:22:17.965Z,8.27
2018-12-29T20:25:22.245Z,10.67
2018-12-29T20:28:26.748Z,11.33
2018-12-29T20:31:31.095Z,6.60
2018-12-29T20:34:36.092Z,12.97
2018-12-29T20:37:40.688Z,11.83
2018-12-29T20:40:45.549Z,7.13
2018-12-29T20:43:50.047Z,7.93
2018-12-29T20:46:54.568Z,8.90
2018-12-29T20:49:58.999Z,7.87
2018-12-29T20:53:03.422Z,8.53
2018-12-29T20:56:07.772Z,9.03
2018-12-29T20:59:12.072Z,7.30
2018-12-29T21:02:16.461Z,8.73
2018-12-29T21:05:20.903Z,8.13
2018-12-29T21:08:25.242Z,7.53
2018-12-29T21:11:29.723Z,9.13
2018-12-29T21:14:34.197Z,9.87
2018-12-29T21:17:38.629Z,8.70
2018-12-29T21:20:43.061Z,8.57
2018-12-29T21:23:47.449Z,8.93
2018-12-29T21:26:51.821Z,7.93
2018-12-29T21:29:56.260Z,9.23
2018-12-29T21:33:00.823Z,9.87
2018-12-29T21:36:05.226Z,9.70
2018-12-29T21:39:09.701Z,11.07
2018-12-29T21:42:14.134Z,10.00
2018-12-29T21:45:18.547Z,9.43
2018-12-29T21:48:23.015Z,7.47
2018-12-29T21:51:27.349Z,8.50
2018-12-29T21:54:31.739Z,9.23
2018-12-29T21:57:36.150Z,7.13
2018-12-29T22:00:40.457Z,8.13
2018-12-29T22:03:45.269Z,7.93
2018-12-29T22:06:50.674Z,7.43
2018-12-29T22:09:55.122Z,7.50
2018-12-29T22:12:59.536Z,10.33
2018-12-29T22:16:03.948Z,7.57
2018-12-29T22:19:08.393Z,9.20
2018-12-29T22:22:12.691Z,7.70
2018-12-29T22:25:17.436Z,8.33
2018-12-29T22:28:21.785Z,8.57
2018-12-29T22:31:26.129Z,9.50
2018-12-29T22:34:30.571Z,9.07
2018-12-29T22:37:34.939Z,10.00
2018-12-29T22:40:39.326Z,8.07
2018-12-29T22:43:43.707Z,8.27
2018-12-29T22:46:48.091Z,11.17
2018-12-29T22:49:52.599Z,9.37
2018-12-29T22:52:57.003Z,11.90
2018-12-29T22:56:01.328Z,9.20
2018-12-29T22:59:05.655Z,8.40
2018-12-29T23:02:10.148Z,9.03
2018-12-29T23:05:14.452Z,8.53
2018-12-29T23:08:18.933Z,11.23
2018-12-29T23:11:23.349Z,11.63
2018-12-29T23:14:27.643Z,7.63
2018-12-29T23:17:32.438Z,8.93
2018-12-29T23:20:36.792Z,10.83
2018-12-29T23:23:41.214Z,9.60
2018-12-29T23:26:45.663Z,9.40
2018-12-29T23:29:50.321Z,9.30
2018-12-29T23:32:54.657Z,10.37
2018-12-29T23:35:59.117Z,8.83
2018-12-29T23:39:03.924Z,9.57
2018-12-29T23:42:08.274Z,9.17
2018-12-29T23:45:12.665Z,9.93
2018-12-29T23:48:17.273Z,8.43
2018-12-29T23:51:21.631Z,8.83
2018-12-29T23:54:26.071Z,7.43
2018-12-29T23:57:30.937Z,8.97
